createdAt,value
2022-10-12T00:00:11.059Z,100824.28
2022-10-12T00:02:38.686Z,100824.28
2022-10-12T00:05:06.257Z,100826.06
2022-10-12T00:07:34.349Z,100825.28
2022-10-12T00:10:01.940Z,100829.78
2022-10-12T00:12:29.846Z,100824.59
2022-10-12T00:14:57.404Z,100830.97
2022-10-12T00:17:24.957Z,100822.38
2022-10-12T00:19:52.570Z,100819.94
2022-10-12T00:22:20.122Z,100816.66
2022-10-12T00:24:48.446Z,100820.22
2022-10-12T00:27:16.030Z,100824.66
2022-10-12T00:29:43.873Z,100822.06
2022-10-12T00:32:11.436Z,100814.94
2022-10-12T00:34:39.059Z,100816.75
2022-10-12T00:37:06.938Z,100816.84
2022-10-12T00:39:34.485Z,100815.19
2022-10-12T00:42:02.100Z,100817.06
2022-10-12T00:44:29.650Z,100816.28
2022-10-12T00:46:57.182Z,100816.28
2022-10-12T00:49:25.129Z,100812.75
2022-10-12T00:51:53.118Z,100819.75
2022-10-12T00:54:20.654Z,100818.78
2022-10-12T00:56:48.252Z,100820.41
2022-10-12T00:59:15.823Z,100815.09
2022-10-12T01:01:43.930Z,100817.63
2022-10-12T01:04:11.523Z,100829.00
2022-10-12T01:06:39.056Z,100822.81
2022-10-12T01:09:06.611Z,100816.66
2022-10-12T01:11:34.367Z,100817.56
2022-10-12T01:14:03.934Z,100818.44
2022-10-12T01:16:31.472Z,100818.50
2022-10-12T01:18:59.041Z,100823.78
2022-10-12T01:21:26.559Z,100821.19
2022-10-12T01:23:54.117Z,100812.50
2022-10-12T01:26:22.086Z,100809.91
2022-10-12T01:28:49.708Z,100812.66
2022-10-12T01:31:17.311Z,100814.38
2022-10-12T01:33:44.908Z,100797.75
2022-10-12T01:36:12.881Z,100796.94
2022-10-12T01:38:41.025Z,100793.50
2022-10-12T01:41:08.663Z,100800.69
2022-10-12T01:43:36.275Z,100791.06
2022-10-12T01:46:03.813Z,100785.00
2022-10-12T01:48:31.431Z,100785.06
2022-10-12T01:50:59.287Z,100793.03
2022-10-12T01:53:26.845Z,100787.03
2022-10-12T01:55:54.444Z,100782.75
2022-10-12T01:58:22.451Z,100781.91
2022-10-12T02:00:49.999Z,100780.19
2022-10-12T02:03:17.937Z,100780.25
2022-10-12T02:05:45.516Z,100783.81
2022-10-12T02:08:13.093Z,100798.00
2022-10-12T02:10:40.708Z,100788.44
2022-10-12T02:13:08.245Z,100785.94
2022-10-12T02:15:36.330Z,100789.72
2022-10-12T02:18:03.914Z,100781.19
2022-10-12T02:20:31.807Z,100778.69
2022-10-12T02:22:59.345Z,100774.44
2022-10-12T02:25:26.931Z,100770.16
2022-10-12T02:27:55.127Z,100772.94
2022-10-12T02:30:22.671Z,100765.16
2022-10-12T02:32:50.261Z,100763.50
2022-10-12T02:35:17.860Z,100755.72
2022-10-12T02:37:45.426Z,100756.72
2022-10-12T02:40:13.532Z,100753.28
2022-10-12T02:43:08.418Z,100758.75
2022-10-12T02:45:28.640Z,100756.25
2022-10-12T02:47:56.233Z,100751.94
2022-10-12T02:50:24.338Z,100759.06
2022-10-12T02:52:51.945Z,100753.81
2022-10-12T02:55:19.462Z,100747.66
2022-10-12T02:57:47.021Z,100744.09
2022-10-12T03:00:14.627Z,100744.09
2022-10-12T03:02:44.238Z,100747.53
2022-10-12T03:05:11.780Z,100746.63
2022-10-12T03:07:39.976Z,100742.19
2022-10-12T03:10:07.948Z,100737.78
2022-10-12T03:12:35.582Z,100737.78
2022-10-12T03:15:03.693Z,100735.19
2022-10-12T03:17:31.251Z,100729.16
2022-10-12T03:19:59.358Z,100724.81
2022-10-12T03:22:27.098Z,100725.59
2022-10-12T03:24:55.031Z,100722.03
2022-10-12T03:27:23.300Z,100727.25
2022-10-12T03:29:50.856Z,100722.56
2022-10-12T03:32:18.404Z,100724.25
2022-10-12T03:34:45.969Z,100720.84
2022-10-12T03:37:13.567Z,100726.25
2022-10-12T03:39:41.714Z,100722.03
2022-10-12T03:42:09.293Z,100723.00
2022-10-12T03:44:37.366Z,100715.25
2022-10-12T03:47:04.910Z,100722.41
2022-10-12T03:49:32.455Z,100718.19
2022-10-12T03:52:00.378Z,100718.31
2022-10-12T03:54:27.924Z,100714.91
2022-10-12T03:56:55.456Z,100719.31
2022-10-12T03:59:23.080Z,100714.91
2022-10-12T04:01:50.683Z,100719.38
2022-10-12T04:04:18.612Z,100715.00
2022-10-12T04:06:46.623Z,100709.88
2022-10-12T04:09:14.196Z,100713.44
2022-10-12T04:11:41.762Z,100703.72
2022-10-12T04:14:09.401Z,100700.31
2022-10-12T04:16:37.283Z,100703.81
2022-10-12T04:19:04.864Z,100710.03
2022-10-12T04:21:32.452Z,100701.19
2022-10-12T04:24:00.087Z,100708.16
2022-10-12T04:26:27.612Z,100705.47
2022-10-12T04:28:57.694Z,100699.34
2022-10-12T04:31:25.238Z,100700.25
2022-10-12T04:33:56.554Z,100696.75
2022-10-12T04:36:24.179Z,100692.47
2022-10-12T04:38:51.789Z,100689.00
2022-10-12T04:41:19.923Z,100696.91
2022-10-12T04:43:47.533Z,100687.19
2022-10-12T04:46:15.489Z,100690.50
2022-10-12T04:48:43.053Z,100692.22
2022-10-12T04:51:11.127Z,100698.22
2022-10-12T04:53:39.083Z,100695.56
2022-10-12T04:56:06.651Z,100701.72
2022-10-12T04:58:34.272Z,100689.53
2022-10-12T05:01:02.035Z,100686.94
2022-10-12T05:03:30.071Z,100687.81
2022-10-12T05:05:58.259Z,100685.19
2022-10-12T05:08:25.846Z,100686.00
2022-10-12T05:10:53.458Z,100685.13
2022-10-12T05:13:21.465Z,100692.09
2022-10-12T05:15:49.050Z,100684.00
2022-10-12T05:18:17.031Z,100689.91
2022-10-12T05:20:44.690Z,100685.44
2022-10-12T05:23:12.308Z,100687.09
2022-10-12T05:25:39.883Z,100687.09
2022-10-12T05:28:07.743Z,100687.03
2022-10-12T05:30:35.911Z,100680.75
2022-10-12T05:33:03.510Z,100675.50
2022-10-12T05:35:31.613Z,100686.03
2022-10-12T05:37:59.215Z,100686.03
2022-10-12T05:40:26.779Z,100675.50
2022-10-12T05:42:54.976Z,100679.06
2022-10-12T05:45:22.724Z,100683.41
2022-10-12T05:47:50.344Z,100677.19
2022-10-12T05:50:17.976Z,100685.06
2022-10-12T05:52:45.634Z,100680.72
2022-10-12T05:55:13.536Z,100679.78
2022-10-12T05:57:41.599Z,100677.97
2022-10-12T06:00:09.680Z,100684.06
2022-10-12T06:02:37.525Z,100686.63
2022-10-12T06:05:05.337Z,100692.72
2022-10-12T06:07:33.522Z,100686.56
2022-10-12T06:10:01.393Z,100689.16
2022-10-12T06:12:29.013Z,100688.16
2022-10-12T06:14:56.655Z,100693.44
2022-10-12T06:17:24.317Z,100700.41
2022-10-12T06:19:52.464Z,100690.78
2022-10-12T06:22:20.120Z,100689.88
2022-10-12T06:24:47.741Z,100694.31
2022-10-12T06:27:17.725Z,100694.31
2022-10-12T06:29:45.441Z,100700.41
2022-10-12T06:32:13.686Z,100701.19
2022-10-12T06:34:41.352Z,100702.06
2022-10-12T06:37:16.406Z,100705.50
2022-10-12T06:39:57.843Z,100706.31
2022-10-12T06:42:26.648Z,100708.91
2022-10-12T06:44:54.422Z,100705.28
2022-10-12T06:47:22.177Z,100702.59
2022-10-12T06:49:49.872Z,100704.16
2022-10-12T06:52:17.654Z,100705.81
2022-10-12T06:54:46.142Z,100704.81
2022-10-12T06:57:13.940Z,100704.63
2022-10-12T06:59:41.696Z,100704.41
2022-10-12T07:02:09.913Z,100694.44
2022-10-12T07:04:37.929Z,100702.84
2022-10-12T07:07:06.217Z,100699.03
2022-10-12T07:09:33.951Z,100694.84
2022-10-12T07:12:01.744Z,100694.19
2022-10-12T07:14:29.585Z,100696.19
2022-10-12T07:16:57.368Z,100695.47
2022-10-12T07:19:25.997Z,100690.31
2022-10-12T07:21:53.650Z,100682.63
2022-10-12T07:24:21.942Z,100692.66
2022-10-12T07:26:49.804Z,100695.78
2022-10-12T07:29:17.564Z,100685.63
2022-10-12T07:31:49.758Z,100680.84
2022-10-12T07:34:19.793Z,100675.78
2022-10-12T07:36:59.176Z,100681.50
2022-10-12T07:39:27.133Z,100682.75
2022-10-12T07:41:55.635Z,100686.25
2022-10-12T07:44:24.805Z,100673.88
2022-10-12T07:46:52.644Z,100669.50
2022-10-12T07:49:20.405Z,100671.53
2022-10-12T07:51:48.241Z,100674.03
2022-10-12T07:54:20.415Z,100672.84
2022-10-12T07:56:49.722Z,100671.28
2022-10-12T07:59:17.433Z,100668.75
2022-10-12T08:01:45.353Z,100677.84
2022-10-12T08:04:13.149Z,100671.81
2022-10-12T08:06:42.500Z,100671.00
2022-10-12T08:09:10.338Z,100671.03
2022-10-12T08:11:38.195Z,100675.41
2022-10-12T08:14:05.982Z,100680.84
2022-10-12T08:16:33.742Z,100677.44
2022-10-12T08:19:02.114Z,100677.53
2022-10-12T08:21:30.023Z,100674.75
2022-10-12T08:23:57.855Z,100674.66
2022-10-12T08:26:25.781Z,100671.97
2022-10-12T08:28:54.206Z,100671.38
2022-10-12T08:31:22.649Z,100657.72
2022-10-12T08:33:50.510Z,100663.31
2022-10-12T08:36:18.483Z,100656.78
2022-10-12T08:38:48.839Z,100646.41
2022-10-12T08:41:16.774Z,100643.88
2022-10-12T08:43:44.955Z,100648.28
2022-10-12T08:46:12.985Z,100645.41
2022-10-12T08:48:40.883Z,100642.84
2022-10-12T08:51:11.119Z,100637.50
2022-10-12T08:53:39.179Z,100638.47
2022-10-12T08:56:07.809Z,100639.31
2022-10-12T08:58:35.726Z,100644.44
2022-10-12T09:01:03.570Z,100638.06
2022-10-12T09:03:31.469Z,100637.25
2022-10-12T09:05:59.403Z,100647.47
2022-10-12T09:08:27.922Z,100646.50
2022-10-12T09:10:56.148Z,100644.31
2022-10-12T09:13:24.544Z,100644.22
2022-10-12T09:15:53.207Z,100639.28
2022-10-12T09:18:21.089Z,100634.56
2022-10-12T09:20:49.655Z,100634.06
2022-10-12T09:23:17.527Z,100639.81
2022-10-12T09:25:46.720Z,100632.88
2022-10-12T09:28:14.476Z,100632.19
2022-10-12T09:30:42.445Z,100630.72
2022-10-12T09:33:10.906Z,100633.44
2022-10-12T09:35:39.140Z,100628.72
2022-10-12T09:38:07.263Z,100631.03
2022-10-12T09:40:35.415Z,100632.22
2022-10-12T09:43:03.217Z,100626.00
2022-10-12T09:45:31.276Z,100621.03
2022-10-12T09:47:59.050Z,100618.81
2022-10-12T09:50:26.929Z,100614.25
2022-10-12T09:52:55.477Z,100616.28
2022-10-12T09:55:23.581Z,100605.69
2022-10-12T09:57:52.777Z,100600.63
2022-10-12T10:00:20.624Z,100601.25
2022-10-12T10:02:48.535Z,100602.31
2022-10-12T10:05:16.489Z,100597.78
2022-10-12T10:07:44.417Z,100597.94
2022-10-12T10:10:13.289Z,100593.31
2022-10-12T10:12:41.509Z,100593.72
2022-10-12T10:15:09.288Z,100593.31
2022-10-12T10:17:37.384Z,100587.69
2022-10-12T10:20:05.423Z,100593.38
2022-10-12T10:22:33.534Z,100597.63
2022-10-12T10:25:01.673Z,100598.56
2022-10-12T10:27:29.532Z,100596.28
2022-10-12T10:30:10.831Z,100596.06
2022-10-12T10:32:46.083Z,100588.56
2022-10-12T10:35:13.977Z,100590.75
2022-10-12T10:37:42.017Z,100592.28
2022-10-12T10:40:10.984Z,100589.69
2022-10-12T10:42:38.956Z,100589.69
2022-10-12T10:45:07.952Z,100590.31
2022-10-12T10:47:35.955Z,100585.53
2022-10-12T10:50:03.791Z,100588.44
2022-10-12T10:52:31.615Z,100598.81
2022-10-12T10:54:59.564Z,100594.88
2022-10-12T10:57:27.949Z,100595.47
2022-10-12T10:59:55.735Z,100596.41
2022-10-12T11:02:23.983Z,100593.59
2022-10-12T11:04:51.804Z,100584.16
2022-10-12T11:07:19.771Z,100586.47
2022-10-12T11:09:48.664Z,100582.78
2022-10-12T11:12:16.699Z,100579.00
2022-10-12T11:14:44.631Z,100577.63
2022-10-12T11:17:12.567Z,100569.38
2022-10-12T11:19:40.464Z,100569.84
2022-10-12T11:22:09.011Z,100569.47
2022-10-12T11:24:37.238Z,100574.50
2022-10-12T11:27:05.205Z,100558.03
2022-10-12T11:29:33.056Z,100559.31
2022-10-12T11:32:01.017Z,100555.69
2022-10-12T11:34:29.099Z,100559.81
2022-10-12T11:37:18.173Z,100546.53
2022-10-12T11:39:44.918Z,100540.69
2022-10-12T11:42:27.856Z,100544.03
2022-10-12T11:44:57.468Z,100530.41
2022-10-12T11:47:25.392Z,100533.16
2022-10-12T11:49:53.608Z,100525.28
2022-10-12T11:52:25.101Z,100528.44
2022-10-12T11:54:56.688Z,100520.78
2022-10-12T11:57:25.029Z,100516.41
2022-10-12T11:59:53.729Z,100520.19
2022-10-12T12:02:21.694Z,100515.50
2022-10-12T12:04:49.867Z,100515.84
2022-10-12T12:07:18.516Z,100516.69
2022-10-12T12:09:50.269Z,100510.47
2022-10-12T12:12:18.815Z,100509.69
2022-10-12T12:14:47.090Z,100506.84
2022-10-12T12:17:14.921Z,100508.59
2022-10-12T12:19:43.341Z,100500.94
2022-10-12T12:22:12.350Z,100506.78
2022-10-12T12:24:40.261Z,100512.69
2022-10-12T12:27:08.786Z,100515.78
2022-10-12T12:29:36.559Z,100515.97
2022-10-12T12:32:04.481Z,100507.88
2022-10-12T12:34:32.735Z,100512.06
2022-10-12T12:37:00.634Z,100506.28
2022-10-12T12:39:30.588Z,100498.44
2022-10-12T12:42:01.984Z,100499.00
2022-10-12T12:44:30.852Z,100503.84
2022-10-12T12:46:59.202Z,100501.31
2022-10-12T12:49:27.144Z,100497.88
2022-10-12T12:51:55.165Z,100495.91
2022-10-12T12:54:23.020Z,100499.78
2022-10-12T12:56:51.533Z,100494.56
2022-10-12T12:59:19.619Z,100492.28
2022-10-12T13:01:47.452Z,100489.19
2022-10-12T13:04:15.320Z,100495.88
2022-10-12T13:06:43.211Z,100492.84
2022-10-12T13:09:11.108Z,100480.44
2022-10-12T13:11:39.343Z,100482.34
2022-10-12T13:14:07.238Z,100479.00
2022-10-12T13:17:30.015Z,100483.75
2022-10-12T13:19:23.783Z,100478.38
2022-10-12T13:21:51.584Z,100484.59
2022-10-12T13:24:19.464Z,100476.84
2022-10-12T13:26:47.325Z,100474.78
2022-10-12T13:29:15.281Z,100465.34
2022-10-12T13:31:45.189Z,100465.69
2022-10-12T13:34:13.025Z,100463.66
2022-10-12T13:36:41.057Z,100466.03
2022-10-12T13:39:08.839Z,100460.94
2022-10-12T13:41:36.816Z,100466.00
2022-10-12T13:44:05.006Z,100460.81
2022-10-12T13:46:33.614Z,100468.19
2022-10-12T13:49:01.533Z,100459.28
2022-10-12T13:51:29.398Z,100462.31
2022-10-12T13:53:57.698Z,100458.22
2022-10-12T13:56:26.029Z,100462.00
2022-10-12T13:58:54.461Z,100461.34
2022-10-12T14:01:22.348Z,100453.09
2022-10-12T14:03:50.407Z,100451.91
2022-10-12T14:06:18.145Z,100455.25
2022-10-12T14:08:46.144Z,100446.84
2022-10-12T14:11:14.709Z,100440.31
2022-10-12T14:13:42.748Z,100434.63
2022-10-12T14:16:10.600Z,100437.44
2022-10-12T14:18:38.972Z,100437.69
2022-10-12T14:21:07.277Z,100433.38
2022-10-12T14:23:35.724Z,100429.34
2022-10-12T14:26:03.488Z,100416.59
2022-10-12T14:28:31.471Z,100404.81
2022-10-12T14:30:59.490Z,100405.50
2022-10-12T14:33:27.856Z,100412.16
2022-10-12T14:35:56.624Z,100407.94
2022-10-12T14:38:24.434Z,100403.09
2022-10-12T14:40:54.220Z,100393.41
2022-10-12T14:43:24.391Z,100399.16
2022-10-12T14:45:52.767Z,100400.47
2022-10-12T14:48:21.227Z,100393.69
2022-10-12T14:50:49.121Z,100396.81
2022-10-12T14:53:17.002Z,100394.28
2022-10-12T14:55:45.242Z,100396.59
2022-10-12T14:58:15.097Z,100391.59
2022-10-12T15:00:43.240Z,100388.69
2022-10-12T15:03:11.214Z,100395.16
2022-10-12T15:05:38.930Z,100384.75
2022-10-12T15:08:09.258Z,100384.34
2022-10-12T15:10:37.877Z,100374.03
2022-10-12T15:13:06.111Z,100386.53
2022-10-12T15:15:33.934Z,100374.78
2022-10-12T15:18:01.848Z,100376.69
2022-10-12T15:20:30.012Z,100378.88
2022-10-12T15:22:57.871Z,100372.94
2022-10-12T15:25:26.261Z,100367.91
2022-10-12T15:27:54.200Z,100380.25
2022-10-12T15:30:22.144Z,100368.75
2022-10-12T15:32:50.110Z,100372.06
2022-10-12T15:35:18.249Z,100360.81
2022-10-12T15:37:46.403Z,100366.53
2022-10-12T15:40:14.314Z,100369.56
2022-10-12T15:42:42.852Z,100372.94
2022-10-12T15:45:10.538Z,100359.66
2022-10-12T15:47:38.781Z,100366.75
2022-10-12T15:50:06.980Z,100363.19
2022-10-12T15:52:34.766Z,100369.56
2022-10-12T15:55:02.663Z,100362.47
2022-10-12T15:57:30.680Z,100356.25
2022-10-12T15:59:58.741Z,100358.19
2022-10-12T16:02:27.582Z,100358.69
2022-10-12T16:04:55.485Z,100357.28
2022-10-12T16:07:23.223Z,100363.00
2022-10-12T16:09:51.248Z,100365.31
2022-10-12T16:12:19.129Z,100370.16
2022-10-12T16:14:47.577Z,100369.03
2022-10-12T16:17:15.764Z,100370.91
2022-10-12T16:19:44.013Z,100365.66
2022-10-12T16:22:12.103Z,100367.41
2022-10-12T16:24:41.379Z,100368.25
2022-10-12T16:27:09.640Z,100365.56
2022-10-12T16:29:37.748Z,100363.72
2022-10-12T16:32:05.814Z,100364.41
2022-10-12T16:34:33.651Z,100358.59
2022-10-12T16:37:02.062Z,100357.31
2022-10-12T16:39:30.410Z,100359.72
2022-10-12T16:41:58.302Z,100358.59
2022-10-12T16:44:26.244Z,100356.31
2022-10-12T16:46:54.149Z,100355.19
2022-10-12T16:49:22.452Z,100353.19
2022-10-12T16:51:50.825Z,100353.03
2022-10-12T16:54:18.737Z,100343.13
2022-10-12T16:56:46.615Z,100355.53
2022-10-12T16:59:14.566Z,100358.19
2022-10-12T17:01:43.178Z,100353.66
2022-10-12T17:04:11.543Z,100356.13
2022-10-12T17:06:39.831Z,100361.44
2022-10-12T17:09:07.749Z,100362.81
2022-10-12T17:11:35.691Z,100366.84
2022-10-12T17:14:03.623Z,100374.47
2022-10-12T17:16:49.545Z,100382.03
2022-10-12T17:19:17.479Z,100381.84
2022-10-12T17:21:45.340Z,100369.97
2022-10-12T17:24:13.290Z,100368.78
2022-10-12T17:26:41.670Z,100385.13
2022-10-12T17:29:09.991Z,100383.94
2022-10-12T17:31:37.801Z,100376.56
2022-10-12T17:34:07.338Z,100378.03
2022-10-12T17:36:35.344Z,100384.88
2022-10-12T17:39:03.278Z,100390.19
2022-10-12T17:41:31.563Z,100389.22
2022-10-12T17:43:59.509Z,100398.88
2022-10-12T17:46:28.339Z,100389.91
2022-10-12T17:48:56.333Z,100394.16
2022-10-12T17:51:24.173Z,100398.44
2022-10-12T17:53:52.484Z,100399.78
2022-10-12T17:56:20.572Z,100394.06
2022-10-12T17:58:48.494Z,100408.06
2022-10-12T18:01:16.975Z,100397.88
2022-10-12T18:03:46.936Z,100397.38
2022-10-12T18:06:15.467Z,100415.84
2022-10-12T18:08:43.598Z,100417.44
2022-10-12T18:11:12.008Z,100421.69
2022-10-12T18:13:40.095Z,100417.94
2022-10-12T18:16:08.061Z,100420.09
2022-10-12T18:18:36.416Z,100419.59
2022-10-12T18:21:04.230Z,100418.00
2022-10-12T18:23:32.164Z,100410.16
2022-10-12T18:26:00.492Z,100408.44
2022-10-12T18:28:28.401Z,100407.84
2022-10-12T18:30:56.821Z,100414.25
2022-10-12T18:33:25.144Z,100404.06
2022-10-12T18:35:52.938Z,100404.78
2022-10-12T18:38:21.106Z,100413.50
2022-10-12T18:40:48.970Z,100412.38
2022-10-12T18:43:17.255Z,100416.38
2022-10-12T18:45:45.218Z,100408.69
2022-10-12T18:48:13.015Z,100416.06
2022-10-12T18:50:40.840Z,100410.84
2022-10-12T18:53:08.674Z,100409.13
2022-10-12T18:55:37.226Z,100408.41
2022-10-12T18:58:05.108Z,100405.00
2022-10-12T19:00:33.118Z,100402.56
2022-10-12T19:03:01.163Z,100402.69
2022-10-12T19:05:28.926Z,100410.06
2022-10-12T19:07:57.269Z,100408.34
2022-10-12T19:10:25.181Z,100405.94
2022-10-12T19:12:52.948Z,100399.97
2022-10-12T19:15:20.890Z,100400.34
2022-10-12T19:17:48.752Z,100392.53
2022-10-12T19:20:17.450Z,100387.56
2022-10-12T19:22:45.424Z,100386.09
2022-10-12T19:25:13.387Z,100393.47
2022-10-12T19:27:41.232Z,100390.28
2022-10-12T19:30:09.513Z,100380.94
2022-10-12T19:32:37.831Z,100385.66
2022-10-12T19:35:05.727Z,100377.16
2022-10-12T19:37:33.707Z,100371.09
2022-10-12T19:40:07.474Z,100375.56
2022-10-12T19:42:35.892Z,100378.44
2022-10-12T19:45:03.917Z,100375.50
2022-10-12T19:47:31.871Z,100383.22
2022-10-12T19:49:59.770Z,100376.00
2022-10-12T19:52:27.771Z,100372.06
2022-10-12T19:54:55.542Z,100368.16
2022-10-12T19:57:24.323Z,100367.75
2022-10-12T19:59:52.084Z,100361.81
2022-10-12T20:02:20.668Z,100356.06
2022-10-12T20:04:54.171Z,100359.03
2022-10-12T20:07:22.174Z,100363.09
2022-10-12T20:09:50.496Z,100364.41
2022-10-12T20:12:18.587Z,100366.66
2022-10-12T20:14:46.733Z,100374.06
2022-10-12T20:17:14.880Z,100374.28
2022-10-12T20:19:42.683Z,100379.06
2022-10-12T20:22:11.097Z,100369.59
2022-10-12T20:24:39.314Z,100369.06
2022-10-12T20:27:07.197Z,100371.94
2022-10-12T20:29:35.126Z,100373.13
2022-10-12T20:32:03.020Z,100378.63
2022-10-12T20:34:31.090Z,100377.06
2022-10-12T20:36:58.924Z,100377.91
2022-10-12T20:39:26.820Z,100370.16
2022-10-12T20:41:54.998Z,100364.69
2022-10-12T20:44:22.936Z,100362.91
2022-10-12T20:46:51.071Z,100353.13
2022-10-12T20:49:19.059Z,100354.06
2022-10-12T20:51:46.945Z,100353.22
2022-10-12T20:54:16.430Z,100359.50
2022-10-12T20:56:46.804Z,100356.94
2022-10-12T20:59:15.058Z,100362.34
2022-10-12T21:01:42.889Z,100363.31
2022-10-12T21:04:11.699Z,100364.38
2022-10-12T21:06:42.905Z,100375.22
2022-10-12T21:09:10.741Z,100380.78
2022-10-12T21:11:39.126Z,100378.44
2022-10-12T21:14:07.080Z,100382.34
2022-10-12T21:16:34.873Z,100382.47
2022-10-12T21:19:02.993Z,100382.66
2022-10-12T21:21:30.840Z,100372.13
2022-10-12T21:23:59.142Z,100371.38
2022-10-12T21:26:27.061Z,100359.13
2022-10-12T21:28:55.386Z,100363.72
2022-10-12T21:31:25.215Z,100367.56
2022-10-12T21:33:56.049Z,100357.97
2022-10-12T21:36:24.007Z,100358.06
2022-10-12T21:38:51.936Z,100356.59
2022-10-12T21:41:19.856Z,100357.97
2022-10-12T21:43:48.637Z,100355.59
2022-10-12T21:46:16.362Z,100354.09
2022-10-12T21:48:44.540Z,100362.38
2022-10-12T21:51:12.470Z,100357.47
2022-10-12T21:53:40.209Z,100357.69
2022-10-12T21:56:08.125Z,100357.88
2022-10-12T21:58:35.921Z,100352.78
2022-10-12T22:01:04.288Z,100345.94
2022-10-12T22:03:32.141Z,100355.00
2022-10-12T22:05:59.845Z,100356.13
2022-10-12T22:08:27.775Z,100351.13
2022-10-12T22:10:55.597Z,100351.44
2022-10-12T22:13:24.120Z,100347.25
2022-10-12T22:15:51.829Z,100354.56
2022-10-12T22:18:19.570Z,100355.63
2022-10-12T22:20:47.500Z,100349.78
2022-10-12T22:23:15.150Z,100356.13
2022-10-12T22:25:43.237Z,100358.03
2022-10-12T22:28:10.964Z,100362.56
2022-10-12T22:30:38.597Z,100359.91
2022-10-12T22:33:06.543Z,100355.56
2022-10-12T22:35:34.543Z,100348.56
2022-10-12T22:38:02.548Z,100350.16
2022-10-12T22:40:30.173Z,100350.91
2022-10-12T22:42:57.741Z,100342.94
2022-10-12T22:45:27.998Z,100341.06
2022-10-12T22:47:56.006Z,100332.25
2022-10-12T22:50:23.996Z,100337.56
2022-10-12T22:52:51.636Z,100334.16
2022-10-12T22:55:19.302Z,100328.84
2022-10-12T22:57:48.418Z,100323.72
2022-10-12T23:00:16.030Z,100327.41
2022-10-12T23:02:44.078Z,100324.97
2022-10-12T23:05:11.733Z,100332.28
2022-10-12T23:07:39.406Z,100334.19
2022-10-12T23:10:07.529Z,100330.88
2022-10-12T23:12:35.145Z,100326.81
2022-10-12T23:15:03.090Z,100330.59
2022-10-12T23:17:30.845Z,100328.31
2022-10-12T23:19:58.459Z,100329.47
2022-10-12T23:22:26.123Z,100335.06
2022-10-12T23:24:53.778Z,100322.75
2022-10-12T23:27:21.734Z,100332.41
2022-10-12T23:29:49.426Z,100322.63
2022-10-12T23:32:17.472Z,100332.41
2022-10-12T23:34:45.452Z,100323.50
2022-10-12T23:37:13.036Z,100330.50
2022-10-12T23:39:41.004Z,100319.91
2022-10-12T23:42:08.620Z,100326.06
2022-10-12T23:44:36.218Z,100321.50
2022-10-12T23:47:03.996Z,100320.56
2022-10-12T23:49:31.610Z,100316.00
2022-10-12T23:51:59.572Z,100319.31
2022-10-12T23:54:27.208Z,100315.69
2022-10-12T23:56:54.775Z,100324.47
2022-10-12T23:59:22.599Z,100320.84
